CDC8987 ZGHA-ZYTX
Flight info
| Callsign | CDC8987 |
|---|---|
| Flight time | 2h 20m |
| Altitude | 33100 |
| Route | OPORU W56 LEBUN/K0841S1100 W56 NUDKU/K0839S1070 W56 VYK W34 OTBUL W35 CHG A575 OMDUS OMD74A |
| Aircraft | A21N/M-SDE3FGHIRWY/LB1 |
Departure
| Time | 2026-04-17 06:35 |
|---|---|
| Airport | Changsha Huanghua International Airport (ZGHA) |
Arrival
| Time | 2026-04-17 08:56 |
|---|---|
| Airport | Shenyang Taoxian International Airport (ZYTX) |
| Time | Latitude | Longitude | Altitude | Speed | Heading |
|---|---|---|---|---|---|
| 2026-04-17 06:10 | 28.18651 | 113.21551 | 226 ft | 0 kts | 356° |
| 2026-04-17 06:26 | 28.18641 | 113.21551 | 226 ft | 2 kts | 356° |
| 2026-04-17 06:27 | 28.18626 | 113.21552 | 226 ft | 2 kts | 356° |
| 2026-04-17 06:27 | 28.18610 | 113.21554 | 226 ft | 2 kts | 356° |
| 2026-04-17 06:27 | 28.18594 | 113.21553 | 226 ft | 2 kts | 25° |
| 2026-04-17 06:27 | 28.18581 | 113.21541 | 226 ft | 2 kts | 56° |
| 2026-04-17 06:28 | 28.18575 | 113.21526 | 226 ft | 0 kts | 84° |
| 2026-04-17 06:28 | 28.18575 | 113.21518 | 226 ft | 1 kts | 88° |
| 2026-04-17 06:31 | 28.18576 | 113.21548 | 226 ft | 8 kts | 86° |
| 2026-04-17 06:31 | 28.18581 | 113.21633 | 226 ft | 15 kts | 86° |
| 2026-04-17 06:31 | 28.18582 | 113.21783 | 226 ft | 17 kts | 113° |
| 2026-04-17 06:32 | 28.18469 | 113.21816 | 226 ft | 17 kts | 177° |
| 2026-04-17 06:32 | 28.18347 | 113.21824 | 226 ft | 16 kts | 176° |
| 2026-04-17 06:32 | 28.18226 | 113.21832 | 226 ft | 16 kts | 177° |
| 2026-04-17 06:32 | 28.18107 | 113.21838 | 226 ft | 16 kts | 176° |
| 2026-04-17 06:33 | 28.17991 | 113.21846 | 226 ft | 16 kts | 177° |
| 2026-04-17 06:33 | 28.17874 | 113.21853 | 226 ft | 16 kts | 176° |
| 2026-04-17 06:33 | 28.17758 | 113.21873 | 226 ft | 15 kts | 139° |
| 2026-04-17 06:33 | 28.17744 | 113.21999 | 226 ft | 15 kts | 79° |
| 2026-04-17 06:34 | 28.17811 | 113.22047 | 226 ft | 0 kts | 355° |
| 2026-04-17 06:34 | 28.17938 | 113.22038 | 226 ft | 53 kts | 355° |
| 2026-04-17 06:34 | 28.18625 | 113.21993 | 226 ft | 128 kts | 357° |
| 2026-04-17 06:35 | 28.19779 | 113.21922 | 343 ft | 175 kts | 357° |
| 2026-04-17 06:35 | 28.21073 | 113.21846 | 984 ft | 179 kts | 358° |
| 2026-04-17 06:35 | 28.22401 | 113.21774 | 1820 ft | 179 kts | 358° |
| 2026-04-17 06:35 | 28.23703 | 113.21712 | 2456 ft | 186 kts | 358° |
| 2026-04-17 06:36 | 28.25137 | 113.21633 | 2944 ft | 202 kts | 358° |
| 2026-04-17 06:36 | 28.26666 | 113.21537 | 3519 ft | 214 kts | 358° |
| 2026-04-17 06:36 | 28.28237 | 113.21845 | 4139 ft | 225 kts | 30° |
| 2026-04-17 06:36 | 28.29363 | 113.23141 | 5071 ft | 223 kts | 56° |
| 2026-04-17 06:37 | 28.30234 | 113.24667 | 5857 ft | 225 kts | 55° |
| 2026-04-17 06:37 | 28.31121 | 113.26196 | 6595 ft | 228 kts | 54° |
| 2026-04-17 06:37 | 28.32003 | 113.27697 | 7295 ft | 232 kts | 54° |
| 2026-04-17 06:37 | 28.32903 | 113.29217 | 7974 ft | 236 kts | 54° |
| 2026-04-17 06:38 | 28.33842 | 113.30801 | 8612 ft | 243 kts | 54° |
| 2026-04-17 06:38 | 28.34846 | 113.32495 | 9054 ft | 260 kts | 54° |
| 2026-04-17 06:38 | 28.35918 | 113.34302 | 9494 ft | 278 kts | 54° |
| 2026-04-17 06:38 | 28.37048 | 113.36214 | 9977 ft | 293 kts | 54° |
| 2026-04-17 06:39 | 28.38230 | 113.38214 | 10553 ft | 305 kts | 54° |
| 2026-04-17 06:39 | 28.39488 | 113.40345 | 10973 ft | 322 kts | 54° |
| 2026-04-17 06:39 | 28.40796 | 113.42560 | 11363 ft | 340 kts | 54° |
| 2026-04-17 06:39 | 28.42217 | 113.44932 | 11726 ft | 357 kts | 52° |
| 2026-04-17 06:40 | 28.44151 | 113.46966 | 12024 ft | 372 kts | 30° |
| 2026-04-17 06:40 | 28.46747 | 113.48032 | 12327 ft | 386 kts | 7° |
| 2026-04-17 06:40 | 28.49589 | 113.48254 | 12637 ft | 400 kts | 1° |
| 2026-04-17 06:40 | 28.52529 | 113.48417 | 13016 ft | 413 kts | 1° |
| 2026-04-17 06:41 | 28.55479 | 113.48597 | 13613 ft | 418 kts | 1° |
| 2026-04-17 06:41 | 28.58496 | 113.48796 | 14248 ft | 422 kts | 1° |
| 2026-04-17 06:41 | 28.61513 | 113.49006 | 14827 ft | 426 kts | 1° |
| 2026-04-17 06:41 | 28.64542 | 113.49220 | 15359 ft | 432 kts | 2° |
| 2026-04-17 06:42 | 28.67652 | 113.49443 | 15884 ft | 437 kts | 2° |
| 2026-04-17 06:42 | 28.70768 | 113.49670 | 16367 ft | 443 kts | 1° |
| 2026-04-17 06:42 | 28.73933 | 113.49899 | 16825 ft | 449 kts | 1° |
| 2026-04-17 06:42 | 28.77170 | 113.50132 | 17301 ft | 455 kts | 1° |
| 2026-04-17 06:43 | 28.80359 | 113.50362 | 17757 ft | 460 kts | 1° |
| 2026-04-17 06:43 | 28.83626 | 113.50597 | 18220 ft | 465 kts | 1° |
| 2026-04-17 06:43 | 28.86871 | 113.50832 | 18717 ft | 468 kts | 1° |
| 2026-04-17 06:43 | 28.90180 | 113.51070 | 19243 ft | 471 kts | 0° |
| 2026-04-17 06:44 | 28.93496 | 113.51311 | 19720 ft | 474 kts | 0° |
| 2026-04-17 06:44 | 28.96802 | 113.51549 | 20186 ft | 477 kts | 360° |
| 2026-04-17 06:44 | 29.00134 | 113.51790 | 20656 ft | 480 kts | 360° |
| 2026-04-17 06:44 | 29.03512 | 113.52034 | 21100 ft | 483 kts | 359° |
| 2026-04-17 06:45 | 29.06948 | 113.52281 | 21560 ft | 485 kts | 359° |
| 2026-04-17 06:45 | 29.10381 | 113.52528 | 22001 ft | 488 kts | 359° |
| 2026-04-17 06:45 | 29.13804 | 113.52775 | 22415 ft | 490 kts | 359° |
| 2026-04-17 06:45 | 29.17260 | 113.53026 | 22818 ft | 493 kts | 359° |
| 2026-04-17 06:46 | 29.20694 | 113.53275 | 23172 ft | 496 kts | 359° |
| 2026-04-17 06:46 | 29.24184 | 113.53528 | 23562 ft | 499 kts | 359° |
| 2026-04-17 06:46 | 29.27703 | 113.53780 | 24056 ft | 499 kts | 359° |
| 2026-04-17 06:46 | 29.31189 | 113.54050 | 24605 ft | 497 kts | 359° |
| 2026-04-17 06:47 | 29.34715 | 113.54349 | 24815 ft | 503 kts | 359° |
| 2026-04-17 06:47 | 29.38224 | 113.54653 | 24964 ft | 509 kts | 359° |
| 2026-04-17 06:47 | 29.41781 | 113.54961 | 25095 ft | 515 kts | 360° |
| 2026-04-17 06:47 | 29.45417 | 113.55280 | 25327 ft | 518 kts | 360° |
| 2026-04-17 06:48 | 29.49003 | 113.55595 | 25658 ft | 518 kts | 360° |
| 2026-04-17 06:48 | 29.52647 | 113.55914 | 26072 ft | 517 kts | 359° |
| 2026-04-17 06:48 | 29.56221 | 113.56229 | 26487 ft | 515 kts | 359° |
| 2026-04-17 06:48 | 29.59803 | 113.56541 | 26854 ft | 514 kts | 359° |
| 2026-04-17 06:49 | 29.63398 | 113.56854 | 27154 ft | 514 kts | 359° |
| 2026-04-17 06:49 | 29.66980 | 113.57166 | 27482 ft | 514 kts | 359° |
| 2026-04-17 06:49 | 29.70541 | 113.57478 | 27848 ft | 513 kts | 359° |
| 2026-04-17 06:49 | 29.74149 | 113.57793 | 28200 ft | 512 kts | 359° |
| 2026-04-17 06:50 | 29.77683 | 113.58104 | 28518 ft | 512 kts | 359° |
| 2026-04-17 06:50 | 29.81257 | 113.58416 | 28863 ft | 511 kts | 359° |
| 2026-04-17 06:50 | 29.84831 | 113.58728 | 29203 ft | 510 kts | 359° |
| 2026-04-17 06:50 | 29.88396 | 113.59071 | 29547 ft | 510 kts | 1° |
| 2026-04-17 06:51 | 29.92020 | 113.59681 | 29879 ft | 512 kts | 5° |
| 2026-04-17 06:51 | 29.95545 | 113.60601 | 30191 ft | 515 kts | 10° |
| 2026-04-17 06:51 | 29.99012 | 113.61845 | 30456 ft | 519 kts | 15° |
| 2026-04-17 06:51 | 30.02433 | 113.63405 | 30737 ft | 521 kts | 18° |
| 2026-04-17 06:52 | 30.05927 | 113.65143 | 31013 ft | 522 kts | 19° |
| 2026-04-17 06:52 | 30.09421 | 113.66918 | 31251 ft | 522 kts | 20° |
| 2026-04-17 06:52 | 30.12896 | 113.68686 | 31481 ft | 522 kts | 19° |
| 2026-04-17 06:52 | 30.16397 | 113.70456 | 31740 ft | 522 kts | 19° |
| 2026-04-17 06:53 | 30.19863 | 113.72201 | 31992 ft | 522 kts | 19° |
| 2026-04-17 06:53 | 30.23339 | 113.73944 | 32184 ft | 522 kts | 19° |
| 2026-04-17 06:53 | 30.26845 | 113.75701 | 32413 ft | 522 kts | 19° |
| 2026-04-17 06:53 | 30.30278 | 113.77421 | 32597 ft | 523 kts | 18° |
| 2026-04-17 06:54 | 30.33626 | 113.79099 | 32777 ft | 523 kts | 19° |
| 2026-04-17 06:54 | 30.36947 | 113.80768 | 32984 ft | 523 kts | 18° |
| 2026-04-17 06:54 | 30.40328 | 113.82466 | 33033 ft | 524 kts | 18° |
| 2026-04-17 06:55 | 30.47066 | 113.85854 | 33045 ft | 523 kts | 18° |
| 2026-04-17 06:55 | 30.53789 | 113.89242 | 33277 ft | 525 kts | 18° |
| 2026-04-17 06:55 | 30.57188 | 113.90960 | 33528 ft | 524 kts | 18° |
| 2026-04-17 06:56 | 30.60540 | 113.92653 | 33726 ft | 524 kts | 18° |
| 2026-04-17 06:56 | 30.63890 | 113.94346 | 33886 ft | 523 kts | 18° |
| 2026-04-17 06:56 | 30.67228 | 113.96031 | 34035 ft | 524 kts | 18° |
| 2026-04-17 06:56 | 30.70556 | 113.97717 | 34170 ft | 525 kts | 18° |
| 2026-04-17 06:57 | 30.73919 | 113.99502 | 34279 ft | 527 kts | 20° |
| 2026-04-17 06:57 | 30.77108 | 114.01641 | 34378 ft | 537 kts | 33° |
| 2026-04-17 06:57 | 30.79883 | 114.04582 | 34532 ft | 541 kts | 43° |
| 2026-04-17 06:57 | 30.82453 | 114.07819 | 34680 ft | 542 kts | 45° |
| 2026-04-17 06:58 | 30.85005 | 114.11045 | 34704 ft | 541 kts | 44° |
| 2026-04-17 06:58 | 30.87593 | 114.14133 | 34986 ft | 540 kts | 41° |
| 2026-04-17 06:58 | 30.90304 | 114.17200 | 35060 ft | 539 kts | 39° |
| 2026-04-17 06:59 | 30.96253 | 114.22354 | 35049 ft | 531 kts | 25° |
| 2026-04-17 06:59 | 31.02844 | 114.26057 | 35079 ft | 524 kts | 18° |
| 2026-04-17 07:00 | 31.09508 | 114.29590 | 35058 ft | 524 kts | 19° |
| 2026-04-17 07:00 | 31.16154 | 114.33192 | 35049 ft | 525 kts | 19° |
| 2026-04-17 07:01 | 31.22792 | 114.36829 | 35055 ft | 525 kts | 19° |
| 2026-04-17 07:01 | 31.29625 | 114.40569 | 35050 ft | 525 kts | 18° |
| 2026-04-17 07:02 | 31.36630 | 114.42948 | 35054 ft | 508 kts | 360° |
| 2026-04-17 07:02 | 31.43676 | 114.43315 | 35058 ft | 498 kts | 352° |
| 2026-04-17 07:03 | 31.50680 | 114.43425 | 34902 ft | 499 kts | 353° |
| 2026-04-17 07:03 | 31.57762 | 114.43614 | 35021 ft | 501 kts | 353° |
| 2026-04-17 07:04 | 31.64760 | 114.43831 | 35041 ft | 501 kts | 353° |
| 2026-04-17 07:04 | 31.71857 | 114.44051 | 35062 ft | 500 kts | 353° |
| 2026-04-17 07:05 | 31.78824 | 114.44267 | 35062 ft | 500 kts | 353° |
| 2026-04-17 07:05 | 31.85791 | 114.44485 | 35068 ft | 501 kts | 353° |
| 2026-04-17 07:06 | 31.92732 | 114.44701 | 35069 ft | 499 kts | 353° |
| 2026-04-17 07:06 | 31.99697 | 114.44917 | 35077 ft | 500 kts | 353° |
| 2026-04-17 07:07 | 32.06662 | 114.45135 | 35057 ft | 501 kts | 353° |
| 2026-04-17 07:07 | 32.13658 | 114.45358 | 35054 ft | 501 kts | 353° |
| 2026-04-17 07:08 | 32.20578 | 114.45579 | 35055 ft | 499 kts | 353° |
| 2026-04-17 07:08 | 32.27511 | 114.45909 | 35053 ft | 501 kts | 355° |
| 2026-04-17 07:09 | 32.34503 | 114.46547 | 35047 ft | 502 kts | 356° |
| 2026-04-17 07:09 | 32.41425 | 114.47203 | 35050 ft | 502 kts | 356° |
| 2026-04-17 07:10 | 32.48458 | 114.47861 | 35047 ft | 501 kts | 356° |
| 2026-04-17 07:10 | 32.55435 | 114.48509 | 35047 ft | 500 kts | 356° |
| 2026-04-17 07:11 | 32.62415 | 114.49158 | 35055 ft | 500 kts | 356° |
| 2026-04-17 07:11 | 32.69394 | 114.49809 | 35052 ft | 501 kts | 356° |
| 2026-04-17 07:12 | 32.76530 | 114.50480 | 35049 ft | 500 kts | 356° |
| 2026-04-17 07:12 | 32.83477 | 114.51137 | 35051 ft | 499 kts | 356° |
| 2026-04-17 07:13 | 32.90380 | 114.51789 | 35050 ft | 497 kts | 356° |
| 2026-04-17 07:13 | 32.97262 | 114.52440 | 35045 ft | 497 kts | 356° |
| 2026-04-17 07:14 | 33.04166 | 114.53095 | 35048 ft | 496 kts | 356° |
| 2026-04-17 07:14 | 33.11044 | 114.53748 | 35043 ft | 498 kts | 356° |
| 2026-04-17 07:15 | 33.18007 | 114.54412 | 35045 ft | 498 kts | 356° |
| 2026-04-17 07:15 | 33.24900 | 114.55073 | 35044 ft | 498 kts | 356° |
| 2026-04-17 07:16 | 33.31817 | 114.55733 | 35044 ft | 498 kts | 356° |
| 2026-04-17 07:16 | 33.38698 | 114.56382 | 35046 ft | 499 kts | 356° |
| 2026-04-17 07:17 | 33.45619 | 114.57044 | 35046 ft | 497 kts | 356° |
| 2026-04-17 07:17 | 33.55983 | 114.58034 | 35046 ft | 499 kts | 356° |
| 2026-04-17 07:18 | 33.62888 | 114.58683 | 35046 ft | 498 kts | 355° |
| 2026-04-17 07:18 | 33.69830 | 114.59219 | 35047 ft | 497 kts | 354° |
| 2026-04-17 07:19 | 33.76830 | 114.59915 | 35046 ft | 500 kts | 356° |
| 2026-04-17 07:19 | 33.83810 | 114.60690 | 35046 ft | 500 kts | 356° |
| 2026-04-17 07:20 | 33.90792 | 114.61356 | 35047 ft | 500 kts | 355° |
| 2026-04-17 07:20 | 33.97758 | 114.62010 | 35049 ft | 500 kts | 355° |
| 2026-04-17 07:21 | 34.04680 | 114.62666 | 35051 ft | 502 kts | 355° |
| 2026-04-17 07:21 | 34.11728 | 114.63345 | 35049 ft | 499 kts | 355° |
| 2026-04-17 07:22 | 34.18679 | 114.64011 | 35048 ft | 499 kts | 355° |
| 2026-04-17 07:22 | 34.25628 | 114.64680 | 35045 ft | 498 kts | 355° |
| 2026-04-17 07:23 | 34.32615 | 114.65354 | 35042 ft | 497 kts | 356° |
| 2026-04-17 07:23 | 34.39610 | 114.66031 | 35046 ft | 499 kts | 356° |
| 2026-04-17 07:24 | 34.46598 | 114.66711 | 35044 ft | 496 kts | 356° |
| 2026-04-17 07:24 | 34.53639 | 114.67392 | 35043 ft | 499 kts | 356° |
| 2026-04-17 07:25 | 34.60680 | 114.68086 | 35042 ft | 498 kts | 356° |
| 2026-04-17 07:25 | 34.67698 | 114.68781 | 35038 ft | 495 kts | 356° |
| 2026-04-17 07:26 | 34.74617 | 114.69461 | 35038 ft | 494 kts | 356° |
| 2026-04-17 07:26 | 34.81605 | 114.70151 | 35034 ft | 496 kts | 355° |
| 2026-04-17 07:27 | 34.88707 | 114.70857 | 35032 ft | 494 kts | 355° |
| 2026-04-17 07:27 | 34.95672 | 114.71549 | 35031 ft | 492 kts | 355° |
| 2026-04-17 07:28 | 35.02768 | 114.72254 | 35042 ft | 493 kts | 356° |
| 2026-04-17 07:28 | 35.09881 | 114.72961 | 35025 ft | 492 kts | 355° |
| 2026-04-17 07:29 | 35.16934 | 114.73654 | 35043 ft | 493 kts | 356° |
| 2026-04-17 07:29 | 35.23951 | 114.74350 | 35034 ft | 491 kts | 356° |
| 2026-04-17 07:30 | 35.31011 | 114.75040 | 35033 ft | 489 kts | 356° |
| 2026-04-17 07:30 | 35.37966 | 114.75704 | 35032 ft | 489 kts | 356° |
| 2026-04-17 07:31 | 35.45116 | 114.76390 | 35029 ft | 488 kts | 356° |
| 2026-04-17 07:31 | 35.52227 | 114.77076 | 35033 ft | 487 kts | 357° |
| 2026-04-17 07:32 | 35.59448 | 114.77777 | 35021 ft | 487 kts | 357° |
| 2026-04-17 07:32 | 35.66978 | 114.78496 | 35027 ft | 485 kts | 358° |
| 2026-04-17 07:33 | 35.74737 | 114.79247 | 35026 ft | 484 kts | 358° |
| 2026-04-17 07:33 | 35.82459 | 114.79995 | 35015 ft | 483 kts | 358° |
| 2026-04-17 07:34 | 35.90152 | 114.80741 | 35030 ft | 483 kts | 358° |
| 2026-04-17 07:34 | 35.96978 | 114.81406 | 35020 ft | 482 kts | 359° |
| 2026-04-17 07:35 | 36.03820 | 114.82079 | 35010 ft | 481 kts | 358° |
| 2026-04-17 07:35 | 36.10703 | 114.82755 | 35010 ft | 481 kts | 359° |
| 2026-04-17 07:36 | 36.25170 | 114.84189 | 35010 ft | 480 kts | 359° |
| 2026-04-17 07:37 | 36.32321 | 114.85008 | 34999 ft | 483 kts | 3° |
| 2026-04-17 07:37 | 36.39305 | 114.87472 | 35005 ft | 494 kts | 18° |
| 2026-04-17 07:38 | 36.45979 | 114.91324 | 35005 ft | 494 kts | 21° |
| 2026-04-17 07:38 | 36.52553 | 114.95230 | 35008 ft | 494 kts | 20° |
| 2026-04-17 07:39 | 36.59272 | 114.99153 | 35008 ft | 493 kts | 20° |
| 2026-04-17 07:39 | 36.66000 | 115.03065 | 35003 ft | 492 kts | 20° |
| 2026-04-17 07:40 | 36.72648 | 115.06945 | 34999 ft | 491 kts | 20° |
| 2026-04-17 07:40 | 36.79332 | 115.10858 | 34999 ft | 490 kts | 20° |
| 2026-04-17 07:41 | 36.85907 | 115.14716 | 34994 ft | 489 kts | 20° |
| 2026-04-17 07:41 | 36.92422 | 115.18535 | 35007 ft | 490 kts | 20° |
| 2026-04-17 07:42 | 36.99123 | 115.22473 | 35008 ft | 488 kts | 20° |
| 2026-04-17 07:42 | 37.05975 | 115.26511 | 35004 ft | 486 kts | 20° |
| 2026-04-17 07:43 | 37.12759 | 115.30518 | 34998 ft | 486 kts | 20° |
| 2026-04-17 07:43 | 37.19557 | 115.34541 | 34990 ft | 486 kts | 20° |
| 2026-04-17 07:44 | 37.26394 | 115.38594 | 34988 ft | 485 kts | 20° |
| 2026-04-17 07:44 | 37.33167 | 115.42622 | 34988 ft | 484 kts | 20° |
| 2026-04-17 07:45 | 37.39846 | 115.46599 | 34990 ft | 484 kts | 20° |
| 2026-04-17 07:45 | 37.46176 | 115.50376 | 34992 ft | 483 kts | 20° |
| 2026-04-17 07:46 | 37.52628 | 115.54234 | 34987 ft | 482 kts | 20° |
| 2026-04-17 07:46 | 37.59371 | 115.58273 | 34986 ft | 481 kts | 20° |
| 2026-04-17 07:47 | 37.65997 | 115.62252 | 34983 ft | 481 kts | 20° |
| 2026-04-17 07:47 | 37.72462 | 115.66143 | 34977 ft | 480 kts | 20° |
| 2026-04-17 07:48 | 37.79096 | 115.69027 | 34986 ft | 466 kts | 4° |
| 2026-04-17 07:48 | 37.86165 | 115.69145 | 34981 ft | 456 kts | 351° |
| 2026-04-17 07:49 | 37.93177 | 115.68554 | 34991 ft | 456 kts | 351° |
| 2026-04-17 07:49 | 38.00149 | 115.68012 | 34983 ft | 455 kts | 352° |
| 2026-04-17 07:50 | 38.07100 | 115.67502 | 34981 ft | 455 kts | 352° |
| 2026-04-17 07:50 | 38.13805 | 115.67138 | 34992 ft | 454 kts | 352° |
| 2026-04-17 07:51 | 38.20604 | 115.66690 | 34982 ft | 453 kts | 353° |
| 2026-04-17 07:51 | 38.27452 | 115.67982 | 34983 ft | 469 kts | 13° |
| 2026-04-17 07:52 | 38.33830 | 115.71702 | 34976 ft | 475 kts | 21° |
| 2026-04-17 07:52 | 38.40019 | 115.75706 | 34980 ft | 473 kts | 21° |
| 2026-04-17 07:53 | 38.46391 | 115.79760 | 34967 ft | 473 kts | 21° |
| 2026-04-17 07:53 | 38.52600 | 115.83686 | 34970 ft | 472 kts | 20° |
| 2026-04-17 07:54 | 38.58617 | 115.87653 | 34969 ft | 476 kts | 26° |
| 2026-04-17 07:54 | 38.63898 | 115.93034 | 34968 ft | 487 kts | 40° |
| 2026-04-17 07:55 | 38.68561 | 115.99654 | 34963 ft | 489 kts | 43° |
| 2026-04-17 07:55 | 38.73139 | 116.06356 | 34974 ft | 489 kts | 43° |
| 2026-04-17 07:56 | 38.77777 | 116.13095 | 34964 ft | 488 kts | 43° |
| 2026-04-17 07:56 | 38.82370 | 116.19747 | 34969 ft | 488 kts | 42° |
| 2026-04-17 07:57 | 38.86895 | 116.26305 | 34968 ft | 488 kts | 43° |
| 2026-04-17 07:57 | 38.91531 | 116.33222 | 34958 ft | 492 kts | 49° |
| 2026-04-17 07:58 | 38.94933 | 116.41557 | 34976 ft | 502 kts | 60° |
| 2026-04-17 07:58 | 38.97837 | 116.49964 | 34984 ft | 502 kts | 60° |
| 2026-04-17 07:59 | 39.00794 | 116.58439 | 34978 ft | 501 kts | 60° |
| 2026-04-17 07:59 | 39.03711 | 116.66715 | 34972 ft | 499 kts | 60° |
| 2026-04-17 08:00 | 39.06639 | 116.74986 | 34975 ft | 500 kts | 60° |
| 2026-04-17 08:00 | 39.09558 | 116.83266 | 34967 ft | 500 kts | 61° |
| 2026-04-17 08:01 | 39.12452 | 116.91493 | 34989 ft | 500 kts | 61° |
| 2026-04-17 08:01 | 39.15353 | 116.99764 | 34975 ft | 498 kts | 60° |
| 2026-04-17 08:02 | 39.18225 | 117.07973 | 34985 ft | 499 kts | 60° |
| 2026-04-17 08:02 | 39.21125 | 117.16286 | 34987 ft | 498 kts | 61° |
| 2026-04-17 08:03 | 39.24039 | 117.24666 | 34984 ft | 497 kts | 61° |
| 2026-04-17 08:03 | 39.26967 | 117.33112 | 34975 ft | 497 kts | 61° |
| 2026-04-17 08:04 | 39.29886 | 117.41555 | 34991 ft | 497 kts | 60° |
| 2026-04-17 08:04 | 39.32819 | 117.50060 | 34989 ft | 497 kts | 61° |
| 2026-04-17 08:05 | 39.35748 | 117.58579 | 34999 ft | 498 kts | 60° |
| 2026-04-17 08:05 | 39.38668 | 117.67101 | 34964 ft | 497 kts | 62° |
| 2026-04-17 08:06 | 39.41538 | 117.75498 | 34995 ft | 499 kts | 62° |
| 2026-04-17 08:06 | 39.44318 | 117.83663 | 34982 ft | 497 kts | 62° |
| 2026-04-17 08:07 | 39.47100 | 117.91851 | 34982 ft | 497 kts | 61° |
| 2026-04-17 08:07 | 39.49853 | 117.99976 | 34982 ft | 497 kts | 62° |
| 2026-04-17 08:08 | 39.52621 | 118.08163 | 34981 ft | 497 kts | 62° |
| 2026-04-17 08:08 | 39.55356 | 118.16290 | 34979 ft | 496 kts | 62° |
| 2026-04-17 08:09 | 39.58099 | 118.24454 | 34964 ft | 496 kts | 62° |
| 2026-04-17 08:09 | 39.60839 | 118.32642 | 34984 ft | 497 kts | 62° |
| 2026-04-17 08:10 | 39.63574 | 118.40831 | 34976 ft | 497 kts | 62° |
| 2026-04-17 08:10 | 39.66310 | 118.49050 | 34979 ft | 497 kts | 62° |
| 2026-04-17 08:11 | 39.69080 | 118.57404 | 34984 ft | 498 kts | 62° |
| 2026-04-17 08:11 | 39.72081 | 118.65630 | 35000 ft | 492 kts | 56° |
| 2026-04-17 08:12 | 39.76093 | 118.73071 | 34978 ft | 484 kts | 44° |
| 2026-04-17 08:12 | 39.81010 | 118.79291 | 34998 ft | 476 kts | 33° |
| 2026-04-17 08:13 | 39.86491 | 118.84495 | 34992 ft | 472 kts | 30° |
| 2026-04-17 08:14 | 39.94711 | 118.92055 | 34989 ft | 474 kts | 30° |
| 2026-04-17 08:14 | 40.00120 | 118.97102 | 34993 ft | 473 kts | 30° |
| 2026-04-17 08:15 | 40.05517 | 119.02161 | 34982 ft | 473 kts | 30° |
| 2026-04-17 08:15 | 40.10953 | 119.07293 | 34985 ft | 473 kts | 30° |
| 2026-04-17 08:16 | 40.16398 | 119.12466 | 34990 ft | 473 kts | 30° |
| 2026-04-17 08:16 | 40.21917 | 119.17718 | 34992 ft | 472 kts | 30° |
| 2026-04-17 08:17 | 40.27388 | 119.22828 | 34997 ft | 471 kts | 29° |
| 2026-04-17 08:17 | 40.32923 | 119.27960 | 34997 ft | 472 kts | 29° |
| 2026-04-17 08:18 | 40.38443 | 119.33101 | 34994 ft | 471 kts | 29° |
| 2026-04-17 08:18 | 40.43909 | 119.38210 | 34982 ft | 470 kts | 29° |
| 2026-04-17 08:19 | 40.49340 | 119.43294 | 34978 ft | 470 kts | 29° |
| 2026-04-17 08:19 | 40.55173 | 119.48769 | 34981 ft | 470 kts | 30° |
| 2026-04-17 08:20 | 40.60685 | 119.53954 | 34978 ft | 470 kts | 30° |
| 2026-04-17 08:20 | 40.66060 | 119.59023 | 34976 ft | 469 kts | 30° |
| 2026-04-17 08:21 | 40.71402 | 119.64068 | 34971 ft | 471 kts | 29° |
| 2026-04-17 08:21 | 40.76773 | 119.69151 | 34972 ft | 471 kts | 30° |
| 2026-04-17 08:22 | 40.82098 | 119.74200 | 34984 ft | 471 kts | 30° |
| 2026-04-17 08:22 | 40.87416 | 119.79256 | 34976 ft | 471 kts | 30° |
| 2026-04-17 08:23 | 40.92760 | 119.84344 | 34974 ft | 472 kts | 30° |
| 2026-04-17 08:23 | 40.98109 | 119.89449 | 34974 ft | 473 kts | 30° |
| 2026-04-17 08:24 | 41.03430 | 119.94535 | 34963 ft | 473 kts | 30° |
| 2026-04-17 08:24 | 41.09029 | 119.99900 | 34971 ft | 472 kts | 30° |
| 2026-04-17 08:25 | 41.14691 | 120.05339 | 34977 ft | 472 kts | 31° |
| 2026-04-17 08:25 | 41.20171 | 120.10614 | 34969 ft | 473 kts | 31° |
| 2026-04-17 08:26 | 41.25724 | 120.15972 | 34959 ft | 473 kts | 31° |
| 2026-04-17 08:26 | 41.31290 | 120.21351 | 34959 ft | 473 kts | 30° |
| 2026-04-17 08:27 | 41.36742 | 120.26635 | 34946 ft | 472 kts | 30° |
| 2026-04-17 08:27 | 41.42164 | 120.31902 | 34951 ft | 472 kts | 30° |
| 2026-04-17 08:28 | 41.47435 | 120.37363 | 34939 ft | 478 kts | 38° |
| 2026-04-17 08:28 | 41.51587 | 120.44407 | 34941 ft | 493 kts | 55° |
| 2026-04-17 08:29 | 41.54126 | 120.52994 | 34929 ft | 504 kts | 73° |
| 2026-04-17 08:29 | 41.54922 | 120.62389 | 34939 ft | 509 kts | 83° |
| 2026-04-17 08:30 | 41.55306 | 120.71958 | 34936 ft | 510 kts | 84° |
| 2026-04-17 08:30 | 41.55736 | 120.81557 | 34940 ft | 510 kts | 84° |
| 2026-04-17 08:31 | 41.56197 | 120.91074 | 34942 ft | 510 kts | 84° |
| 2026-04-17 08:31 | 41.56667 | 121.00729 | 34930 ft | 511 kts | 84° |
| 2026-04-17 08:32 | 41.57128 | 121.10407 | 34916 ft | 512 kts | 84° |
| 2026-04-17 08:32 | 41.57574 | 121.20146 | 34909 ft | 513 kts | 85° |
| 2026-04-17 08:33 | 41.57865 | 121.29693 | 34909 ft | 514 kts | 86° |
| 2026-04-17 08:33 | 41.58116 | 121.39228 | 34913 ft | 514 kts | 86° |
| 2026-04-17 08:34 | 41.58374 | 121.48872 | 34919 ft | 514 kts | 86° |
| 2026-04-17 08:34 | 41.58637 | 121.58648 | 34759 ft | 515 kts | 86° |
| 2026-04-17 08:34 | 41.58762 | 121.63427 | 34590 ft | 514 kts | 86° |
| 2026-04-17 08:35 | 41.58885 | 121.68246 | 34422 ft | 514 kts | 87° |
| 2026-04-17 08:35 | 41.59006 | 121.73014 | 34247 ft | 515 kts | 87° |
| 2026-04-17 08:35 | 41.59126 | 121.77891 | 34099 ft | 515 kts | 87° |
| 2026-04-17 08:35 | 41.59244 | 121.82725 | 33967 ft | 516 kts | 87° |
| 2026-04-17 08:36 | 41.59362 | 121.87644 | 33744 ft | 512 kts | 87° |
| 2026-04-17 08:36 | 41.59477 | 121.92574 | 33130 ft | 511 kts | 87° |
| 2026-04-17 08:36 | 41.59591 | 121.97548 | 32174 ft | 516 kts | 87° |
| 2026-04-17 08:36 | 41.59700 | 122.02439 | 31198 ft | 520 kts | 87° |
| 2026-04-17 08:37 | 41.59755 | 122.07317 | 30221 ft | 524 kts | 89° |
| 2026-04-17 08:37 | 41.59603 | 122.12200 | 29227 ft | 526 kts | 93° |
| 2026-04-17 08:37 | 41.59214 | 122.17137 | 28253 ft | 526 kts | 96° |
| 2026-04-17 08:37 | 41.58681 | 122.22053 | 27226 ft | 527 kts | 97° |
| 2026-04-17 08:38 | 41.58127 | 122.26896 | 26160 ft | 528 kts | 97° |
| 2026-04-17 08:38 | 41.57565 | 122.31763 | 25009 ft | 529 kts | 97° |
| 2026-04-17 08:38 | 41.57009 | 122.36596 | 24081 ft | 529 kts | 96° |
| 2026-04-17 08:38 | 41.56458 | 122.41454 | 23290 ft | 523 kts | 96° |
| 2026-04-17 08:39 | 41.55925 | 122.46176 | 22519 ft | 516 kts | 96° |
| 2026-04-17 08:39 | 41.55391 | 122.50898 | 21765 ft | 510 kts | 96° |
| 2026-04-17 08:39 | 41.54870 | 122.55490 | 21030 ft | 504 kts | 96° |
| 2026-04-17 08:39 | 41.54346 | 122.60095 | 20347 ft | 497 kts | 96° |
| 2026-04-17 08:40 | 41.53833 | 122.64600 | 19691 ft | 490 kts | 96° |
| 2026-04-17 08:40 | 41.53325 | 122.69041 | 19027 ft | 484 kts | 96° |
| 2026-04-17 08:40 | 41.52813 | 122.73491 | 18362 ft | 478 kts | 96° |
| 2026-04-17 08:40 | 41.52297 | 122.77949 | 17699 ft | 472 kts | 96° |
| 2026-04-17 08:41 | 41.51783 | 122.82361 | 17058 ft | 466 kts | 96° |
| 2026-04-17 08:41 | 41.51289 | 122.86606 | 16439 ft | 461 kts | 96° |
| 2026-04-17 08:41 | 41.50796 | 122.90820 | 15856 ft | 456 kts | 96° |
| 2026-04-17 08:41 | 41.50315 | 122.94930 | 15258 ft | 453 kts | 96° |
| 2026-04-17 08:42 | 41.49830 | 122.99059 | 14642 ft | 448 kts | 96° |
| 2026-04-17 08:42 | 41.49350 | 123.03122 | 14017 ft | 444 kts | 95° |
| 2026-04-17 08:42 | 41.48872 | 123.07153 | 13415 ft | 439 kts | 96° |
| 2026-04-17 08:42 | 41.48403 | 123.11101 | 12820 ft | 435 kts | 96° |
| 2026-04-17 08:43 | 41.47921 | 123.15100 | 12280 ft | 428 kts | 96° |
| 2026-04-17 08:43 | 41.47457 | 123.18954 | 11890 ft | 417 kts | 96° |
| 2026-04-17 08:43 | 41.47290 | 123.22719 | 11573 ft | 402 kts | 84° |
| 2026-04-17 08:43 | 41.47671 | 123.26389 | 11223 ft | 385 kts | 72° |
| 2026-04-17 08:44 | 41.48400 | 123.29908 | 11048 ft | 369 kts | 68° |
| 2026-04-17 08:44 | 41.49139 | 123.33166 | 10869 ft | 356 kts | 68° |
| 2026-04-17 08:44 | 41.49830 | 123.36253 | 10678 ft | 345 kts | 68° |
| 2026-04-17 08:44 | 41.50527 | 123.39259 | 10499 ft | 332 kts | 65° |
| 2026-04-17 08:45 | 41.51431 | 123.42163 | 10317 ft | 317 kts | 58° |
| 2026-04-17 08:45 | 41.52505 | 123.44893 | 10135 ft | 304 kts | 54° |
| 2026-04-17 08:45 | 41.53599 | 123.47530 | 9944 ft | 295 kts | 54° |
| 2026-04-17 08:45 | 41.54688 | 123.50149 | 9554 ft | 295 kts | 54° |
| 2026-04-17 08:46 | 41.55751 | 123.52726 | 9170 ft | 294 kts | 55° |
| 2026-04-17 08:46 | 41.56845 | 123.55298 | 8781 ft | 292 kts | 51° |
| 2026-04-17 08:46 | 41.58045 | 123.57529 | 8422 ft | 287 kts | 44° |
| 2026-04-17 08:46 | 41.59343 | 123.59545 | 8078 ft | 285 kts | 42° |
| 2026-04-17 08:47 | 41.60686 | 123.61556 | 7728 ft | 283 kts | 42° |
| 2026-04-17 08:47 | 41.62187 | 123.63808 | 7337 ft | 282 kts | 43° |
| 2026-04-17 08:47 | 41.63649 | 123.66016 | 6954 ft | 281 kts | 44° |
| 2026-04-17 08:47 | 41.65107 | 123.68214 | 6575 ft | 280 kts | 44° |
| 2026-04-17 08:48 | 41.66565 | 123.70407 | 6203 ft | 278 kts | 44° |
| 2026-04-17 08:48 | 41.68064 | 123.72665 | 5824 ft | 277 kts | 45° |
| 2026-04-17 08:48 | 41.69527 | 123.74887 | 5448 ft | 276 kts | 45° |
| 2026-04-17 08:48 | 41.71046 | 123.77003 | 5043 ft | 272 kts | 31° |
| 2026-04-17 08:49 | 41.72844 | 123.77838 | 4679 ft | 249 kts | 355° |
| 2026-04-17 08:49 | 41.74640 | 123.77277 | 4319 ft | 237 kts | 325° |
| 2026-04-17 08:49 | 41.76037 | 123.75790 | 4107 ft | 232 kts | 312° |
| 2026-04-17 08:49 | 41.77339 | 123.74179 | 4031 ft | 218 kts | 312° |
| 2026-04-17 08:50 | 41.78159 | 123.72568 | 3983 ft | 191 kts | 281° |
| 2026-04-17 08:50 | 41.78091 | 123.70873 | 3953 ft | 182 kts | 254° |
| 2026-04-17 08:50 | 41.77580 | 123.69357 | 3719 ft | 180 kts | 240° |
| 2026-04-17 08:50 | 41.76863 | 123.67980 | 3582 ft | 180 kts | 234° |
| 2026-04-17 08:51 | 41.76027 | 123.66569 | 3412 ft | 179 kts | 232° |
| 2026-04-17 08:51 | 41.75122 | 123.65140 | 3145 ft | 177 kts | 230° |
| 2026-04-17 08:51 | 41.74241 | 123.63792 | 2891 ft | 176 kts | 229° |
| 2026-04-17 08:51 | 41.73402 | 123.62526 | 2652 ft | 174 kts | 229° |
| 2026-04-17 08:52 | 41.72579 | 123.61288 | 2411 ft | 168 kts | 229° |
| 2026-04-17 08:52 | 41.71842 | 123.60180 | 2175 ft | 152 kts | 229° |
| 2026-04-17 08:52 | 41.71173 | 123.59174 | 1982 ft | 136 kts | 229° |
| 2026-04-17 08:52 | 41.70570 | 123.58263 | 1827 ft | 129 kts | 229° |
| 2026-04-17 08:53 | 41.69980 | 123.57375 | 1669 ft | 126 kts | 229° |
| 2026-04-17 08:53 | 41.69400 | 123.56499 | 1511 ft | 126 kts | 229° |
| 2026-04-17 08:53 | 41.68813 | 123.55615 | 1345 ft | 126 kts | 229° |
| 2026-04-17 08:53 | 41.68238 | 123.54747 | 1182 ft | 125 kts | 230° |
| 2026-04-17 08:54 | 41.67662 | 123.53879 | 1020 ft | 125 kts | 230° |
| 2026-04-17 08:54 | 41.67078 | 123.52998 | 848 ft | 125 kts | 230° |
| 2026-04-17 08:54 | 41.66497 | 123.52123 | 681 ft | 124 kts | 230° |
| 2026-04-17 08:54 | 41.65918 | 123.51268 | 496 ft | 123 kts | 231° |
| 2026-04-17 08:55 | 41.65362 | 123.50410 | 344 ft | 123 kts | 232° |
| 2026-04-17 08:55 | 41.64801 | 123.49555 | 222 ft | 121 kts | 231° |
| 2026-04-17 08:55 | 41.64302 | 123.48798 | 206 ft | 86 kts | 229° |
| 2026-04-17 08:55 | 41.63996 | 123.48337 | 206 ft | 53 kts | 229° |
| 2026-04-17 08:56 | 41.63752 | 123.48006 | 206 ft | 46 kts | 214° |
| 2026-04-17 08:56 | 41.63500 | 123.47865 | 206 ft | 23 kts | 200° |
| 2026-04-17 08:56 | 41.63374 | 123.47763 | 206 ft | 14 kts | 217° |
| 2026-04-17 08:56 | 41.63296 | 123.47810 | 206 ft | 13 kts | 140° |
| 2026-04-17 08:57 | 41.63271 | 123.47896 | 206 ft | 11 kts | 63° |
| 2026-04-17 08:57 | 41.63324 | 123.47984 | 206 ft | 12 kts | 48° |
| 2026-04-17 08:57 | 41.63386 | 123.48077 | 206 ft | 13 kts | 49° |
| 2026-04-17 08:57 | 41.63457 | 123.48159 | 206 ft | 13 kts | 1° |
| 2026-04-17 08:58 | 41.63524 | 123.48140 | 206 ft | 7 kts | 36° |
| 2026-04-17 08:58 | 41.63567 | 123.48196 | 206 ft | 9 kts | 49° |
| 2026-04-17 08:58 | 41.63620 | 123.48276 | 206 ft | 11 kts | 49° |
| 2026-04-17 08:58 | 41.63678 | 123.48364 | 206 ft | 12 kts | 49° |
| 2026-04-17 08:59 | 41.63739 | 123.48456 | 206 ft | 13 kts | 49° |
| 2026-04-17 08:59 | 41.63803 | 123.48553 | 206 ft | 14 kts | 49° |
| 2026-04-17 08:59 | 41.63872 | 123.48656 | 206 ft | 15 kts | 49° |
| 2026-04-17 08:59 | 41.63931 | 123.48753 | 206 ft | 9 kts | 82° |
| 2026-04-17 09:00 | 41.63891 | 123.48823 | 206 ft | 7 kts | 140° |
| 2026-04-17 09:00 | 41.63871 | 123.48846 | 206 ft | 0 kts | 137° |